createdAt,value
2018-11-26T00:00:53.323Z,12.13
2018-11-26T00:05:29.717Z,10.60
2018-11-26T00:10:41.356Z,11.67
2018-11-26T00:15:17.724Z,12.37
2018-11-26T00:19:54.117Z,13.73
2018-11-26T00:24:30.477Z,11.53
2018-11-26T00:29:06.860Z,13.87
2018-11-26T00:33:43.242Z,13.47
2018-11-26T00:38:19.627Z,13.53
2018-11-26T00:42:56.005Z,13.23
2018-11-26T00:47:32.396Z,13.43
2018-11-26T00:52:09.551Z,15.10
2018-11-26T00:56:45.932Z,14.50
2018-11-26T01:01:22.296Z,15.17
2018-11-26T01:05:58.685Z,12.77
2018-11-26T01:10:35.073Z,12.93
2018-11-26T01:15:11.527Z,13.70
2018-11-26T01:19:47.906Z,14.47
2018-11-26T01:24:24.287Z,12.43
2018-11-26T01:29:01.073Z,14.27
2018-11-26T01:33:37.470Z,13.83
2018-11-26T01:38:13.837Z,13.63
2018-11-26T01:42:50.768Z,12.73
2018-11-26T01:47:27.135Z,13.57
2018-11-26T01:52:03.518Z,14.47
2018-11-26T01:56:39.887Z,14.10
2018-11-26T02:01:16.485Z,12.13
2018-11-26T02:05:52.868Z,13.53
2018-11-26T02:10:29.253Z,12.13
2018-11-26T02:15:06.308Z,12.77
2018-11-26T02:19:42.692Z,13.30
2018-11-26T02:24:19.072Z,14.13
2018-11-26T02:28:55.441Z,13.47
2018-11-26T02:33:31.823Z,14.20
2018-11-26T02:38:08.308Z,12.33
2018-11-26T02:42:44.677Z,13.03
2018-11-26T02:47:21.061Z,13.77
2018-11-26T02:51:57.499Z,13.47
2018-11-26T02:56:34.164Z,12.10
2018-11-26T03:01:10.537Z,11.50
2018-11-26T03:05:46.956Z,11.27
2018-11-26T03:10:23.885Z,12.87
2018-11-26T03:15:00.289Z,14.33
2018-11-26T03:19:36.860Z,14.43
2018-11-26T03:24:13.272Z,14.13
2018-11-26T03:28:49.656Z,13.77
2018-11-26T03:33:26.052Z,14.03
2018-11-26T03:38:02.429Z,13.43
2018-11-26T03:42:38.817Z,12.73
2018-11-26T03:47:15.229Z,14.43
2018-11-26T03:51:51.622Z,13.00
2018-11-26T03:56:27.988Z,11.87
2018-11-26T04:01:04.684Z,13.33
2018-11-26T04:05:41.870Z,12.77
2018-11-26T04:10:18.292Z,12.90
2018-11-26T04:14:54.651Z,13.60
2018-11-26T04:19:31.062Z,12.07
2018-11-26T04:24:07.916Z,11.13
2018-11-26T04:28:44.389Z,13.37
2018-11-26T04:33:20.759Z,11.33
2018-11-26T04:37:57.144Z,11.20
2018-11-26T04:42:33.536Z,11.47
2018-11-26T04:47:09.920Z,11.70
2018-11-26T04:51:46.492Z,11.70
2018-11-26T04:56:22.886Z,12.53
2018-11-26T05:00:59.258Z,11.80
2018-11-26T05:05:35.660Z,13.20
2018-11-26T05:10:15.909Z,13.03
2018-11-26T05:14:52.314Z,12.60
2018-11-26T05:19:28.681Z,13.60
2018-11-26T05:24:05.089Z,13.93
2018-11-26T05:28:41.520Z,13.47
2018-11-26T05:33:17.909Z,13.53
2018-11-26T05:37:54.290Z,13.17
2018-11-26T05:42:31.475Z,14.30
2018-11-26T05:47:08.251Z,12.80
2018-11-26T05:51:44.680Z,12.87
2018-11-26T05:56:21.076Z,11.30
2018-11-26T06:00:57.452Z,13.13
2018-11-26T06:05:33.816Z,13.23
2018-11-26T06:10:11.083Z,13.53
2018-11-26T06:14:47.477Z,13.37
2018-11-26T06:19:23.856Z,13.33
2018-11-26T06:24:00.613Z,11.87
2018-11-26T06:28:36.995Z,11.80
2018-11-26T06:33:13.360Z,12.43
2018-11-26T06:37:49.945Z,12.27
2018-11-26T06:42:26.317Z,13.60
2018-11-26T06:47:02.698Z,12.67
2018-11-26T06:51:39.106Z,14.30
2018-11-26T06:56:15.509Z,12.43
2018-11-26T07:00:51.868Z,12.93
2018-11-26T07:05:28.274Z,13.10
2018-11-26T07:10:04.744Z,11.73
2018-11-26T07:14:41.158Z,15.57
2018-11-26T07:19:17.527Z,12.40
2018-11-26T07:23:53.909Z,15.07
2018-11-26T07:28:30.268Z,13.47
2018-11-26T07:33:06.675Z,12.90
2018-11-26T07:37:43.785Z,13.27
2018-11-26T07:42:20.218Z,13.77
2018-11-26T07:46:56.596Z,13.50
2018-11-26T07:51:33.009Z,11.87
2018-11-26T07:56:09.379Z,12.20
2018-11-26T08:00:45.785Z,13.53
2018-11-26T08:05:23.549Z,13.63
2018-11-26T08:10:00.848Z,14.13
2018-11-26T08:14:37.214Z,13.60
2018-11-26T08:19:13.609Z,17.60
2018-11-26T08:23:49.972Z,14.07
2018-11-26T08:28:26.360Z,15.30
2018-11-26T08:33:03.228Z,13.47
2018-11-26T08:37:58.616Z,14.13
2018-11-26T08:42:43.081Z,14.03
2018-11-26T08:47:24.590Z,13.43
2018-11-26T08:52:01.019Z,15.17
2018-11-26T08:56:37.411Z,15.70
2018-11-26T09:01:21.288Z,14.30
2018-11-26T09:06:04.687Z,13.57
2018-11-26T09:10:41.089Z,14.33
2018-11-26T09:15:17.508Z,14.97
2018-11-26T09:19:53.879Z,15.77
2018-11-26T09:24:31.108Z,17.73
2018-11-26T09:29:08.112Z,15.50
2018-11-26T09:33:44.513Z,13.18
2018-11-26T09:38:20.876Z,14.57
2018-11-26T09:42:57.268Z,16.23
2018-11-26T09:47:33.713Z,14.30
2018-11-26T09:52:10.272Z,13.87
2018-11-26T09:56:46.639Z,14.10
2018-11-26T10:01:23.026Z,14.60
2018-11-26T10:05:59.404Z,13.97
2018-11-26T10:10:36.153Z,12.93
2018-11-26T10:15:23.051Z,13.13
2018-11-26T10:20:00.329Z,13.17
2018-11-26T10:24:36.701Z,13.10
2018-11-26T10:29:13.108Z,15.53
2018-11-26T10:33:49.482Z,15.50
2018-11-26T10:38:25.869Z,16.03
2018-11-26T10:43:02.242Z,15.27
2018-11-26T10:47:38.665Z,15.97
2018-11-26T10:52:15.029Z,15.50
2018-11-26T10:56:51.428Z,15.73
2018-11-26T11:01:45.372Z,15.80
2018-11-26T11:06:21.764Z,16.07
2018-11-26T11:10:58.123Z,15.80
2018-11-26T11:15:34.545Z,16.27
2018-11-26T11:20:22.065Z,15.17
2018-11-26T11:24:58.465Z,14.97
2018-11-26T11:29:34.850Z,14.83
2018-11-26T11:34:11.274Z,13.70
2018-11-26T11:38:48.440Z,14.17
2018-11-26T11:43:24.843Z,14.93
2018-11-26T11:48:01.222Z,16.23
2018-11-26T11:52:37.827Z,16.07
2018-11-26T11:57:14.211Z,13.63
2018-11-26T12:01:50.606Z,13.63
2018-11-26T12:06:27.003Z,15.47
2018-11-26T12:11:03.393Z,14.43
2018-11-26T12:15:44.513Z,13.90
2018-11-26T12:20:20.943Z,14.57
2018-11-26T12:24:57.307Z,15.30
2018-11-26T12:29:33.685Z,14.73
2018-11-26T12:34:10.061Z,14.93
2018-11-26T12:38:46.466Z,13.10
2018-11-26T12:43:22.845Z,15.47
2018-11-26T12:47:59.694Z,14.73
2018-11-26T12:52:36.070Z,14.13
2018-11-26T12:57:12.458Z,15.57
2018-11-26T13:01:49.198Z,15.23
2018-11-26T13:06:25.618Z,14.00
2018-11-26T13:11:02.779Z,15.03
2018-11-26T13:15:39.193Z,15.37
2018-11-26T13:20:23.763Z,14.73
2018-11-26T13:25:00.169Z,14.70
2018-11-26T13:29:36.616Z,16.23
2018-11-26T13:34:13.294Z,14.50
2018-11-26T13:38:49.670Z,13.73
2018-11-26T13:43:26.077Z,16.13
2018-11-26T13:48:02.852Z,16.43
2018-11-26T13:52:39.262Z,16.67
2018-11-26T13:57:15.656Z,16.03
2018-11-26T14:01:52.057Z,17.13
2018-11-26T14:06:28.431Z,14.90
2018-11-26T14:11:04.822Z,15.53
2018-11-26T14:15:41.270Z,17.10
2018-11-26T14:20:18.269Z,16.17
2018-11-26T14:24:55.431Z,15.60
2018-11-26T14:29:31.830Z,13.97
2018-11-26T14:34:08.774Z,15.13
2018-11-26T14:38:45.621Z,14.33
2018-11-26T14:43:23.676Z,16.07
2018-11-26T14:48:00.544Z,15.47
2018-11-26T14:52:36.994Z,15.30
2018-11-26T14:57:13.395Z,15.13
2018-11-26T15:01:49.767Z,14.07
2018-11-26T15:06:26.155Z,13.53
2018-11-26T15:11:02.613Z,14.60
2018-11-26T15:15:38.996Z,15.00
2018-11-26T15:20:34.308Z,14.80
2018-11-26T15:25:12.774Z,14.30
2018-11-26T15:29:49.962Z,14.90
2018-11-26T15:34:26.358Z,16.47
2018-11-26T15:39:03.521Z,15.23
2018-11-26T15:43:40.553Z,16.13
2018-11-26T15:48:16.938Z,16.70
2018-11-26T15:52:53.408Z,16.63
2018-11-26T15:57:29.855Z,15.87
2018-11-26T16:02:07.725Z,17.70
2018-11-26T16:06:44.119Z,18.00
2018-11-26T16:11:20.504Z,16.07
2018-11-26T16:15:56.890Z,13.13
2018-11-26T16:20:33.301Z,16.33
2018-11-26T16:25:14.601Z,15.83
2018-11-26T16:29:50.994Z,15.00
2018-11-26T16:34:27.374Z,15.53
2018-11-26T16:39:04.529Z,15.37
2018-11-26T16:43:40.897Z,17.07
2018-11-26T16:48:18.085Z,19.33
2018-11-26T16:52:54.458Z,14.27
2018-11-26T16:57:30.857Z,12.95
2018-11-26T17:02:07.694Z,14.23
2018-11-26T17:06:44.089Z,15.30
2018-11-26T17:11:20.466Z,15.00
2018-11-26T17:15:56.888Z,15.67
2018-11-26T17:20:33.281Z,13.97
2018-11-26T17:25:16.949Z,16.40
2018-11-26T17:29:53.338Z,14.37
2018-11-26T17:34:29.744Z,15.17
2018-11-26T17:39:08.742Z,14.83
2018-11-26T17:43:45.151Z,14.43
2018-11-26T17:48:21.524Z,14.80
2018-11-26T17:52:58.071Z,16.00
2018-11-26T17:57:35.291Z,15.47
2018-11-26T18:02:11.746Z,14.30
2018-11-26T18:06:48.114Z,15.20
2018-11-26T18:11:24.531Z,15.57
2018-11-26T18:16:01.663Z,15.87
2018-11-26T18:20:38.162Z,14.33
2018-11-26T18:25:15.086Z,14.77
2018-11-26T18:29:51.514Z,15.40
2018-11-26T18:34:27.884Z,13.87
2018-11-26T18:39:06.307Z,15.17
2018-11-26T18:43:42.689Z,14.27
2018-11-26T18:48:19.108Z,14.40
2018-11-26T18:52:55.536Z,13.73
2018-11-26T18:57:31.935Z,17.33
2018-11-26T19:02:08.315Z,14.90
2018-11-26T19:06:44.749Z,13.60
2018-11-26T19:11:21.466Z,15.07
2018-11-26T19:16:04.395Z,15.80
2018-11-26T19:20:40.824Z,16.37
2018-11-26T19:25:19.023Z,19.47
2018-11-26T19:29:55.495Z,15.70
2018-11-26T19:34:31.913Z,15.90
2018-11-26T19:39:10.273Z,13.53
2018-11-26T19:43:46.678Z,13.37
2018-11-26T19:48:23.148Z,14.33
2018-11-26T19:52:59.571Z,14.50
2018-11-26T19:57:36.045Z,14.50
2018-11-26T20:02:12.441Z,15.90
2018-11-26T20:06:48.815Z,14.80
2018-11-26T20:11:25.234Z,15.17
2018-11-26T20:16:01.682Z,13.50
2018-11-26T20:20:38.168Z,14.57
2018-11-26T20:25:15.730Z,14.80
2018-11-26T20:29:52.207Z,15.77
2018-11-26T20:34:28.721Z,16.13
2018-11-26T20:39:08.630Z,16.87
2018-11-26T20:43:44.278Z,15.17
2018-11-26T20:48:21.009Z,16.97
2018-11-26T20:52:57.381Z,15.93
2018-11-26T20:57:33.784Z,17.07
2018-11-26T21:02:10.173Z,16.97
2018-11-26T21:06:46.639Z,17.80
2018-11-26T21:11:23.060Z,15.73
2018-11-26T21:15:59.479Z,17.97
2018-11-26T21:20:40.511Z,17.13
2018-11-26T21:25:18.504Z,17.10
2018-11-26T21:29:58.551Z,15.37
2018-11-26T21:34:35.029Z,15.57
2018-11-26T21:39:12.325Z,15.40
2018-11-26T21:43:48.758Z,15.83
2018-11-26T21:48:25.967Z,14.30
2018-11-26T21:53:02.392Z,15.67
2018-11-26T21:57:38.809Z,13.73
2018-11-26T22:02:15.232Z,12.57
2018-11-26T22:06:51.634Z,14.60
2018-11-26T22:11:30.387Z,13.33
2018-11-26T22:16:05.314Z,14.07
2018-11-26T22:20:41.729Z,13.97
2018-11-26T22:25:18.850Z,14.50
2018-11-26T22:29:55.417Z,13.93
2018-11-26T22:34:31.802Z,14.87
2018-11-26T22:39:11.618Z,13.53
2018-11-26T22:43:47.991Z,15.40
2018-11-26T22:48:24.386Z,13.73
2018-11-26T22:53:00.753Z,14.73
2018-11-26T22:57:37.155Z,14.40
2018-11-26T23:02:13.934Z,14.17
2018-11-26T23:06:50.331Z,16.10
2018-11-26T23:11:26.702Z,14.53
2018-11-26T23:16:03.094Z,13.50
2018-11-26T23:20:39.483Z,11.47
2018-11-26T23:25:17.453Z,10.37
2018-11-26T23:29:53.869Z,9.93
2018-11-26T23:34:30.280Z,10.37
2018-11-26T23:39:09.055Z,10.10
2018-11-26T23:43:46.294Z,9.20
2018-11-26T23:48:23.486Z,9.07
2018-11-26T23:53:00.473Z,8.43
2018-11-26T23:57:36.909Z,8.10
